Time;durP1;ratioP1;P1;durP2;ratioP2;P2;SDS_P1;SDS_P2;PMS_P1;PMS_P2;Temp;Humidity;BMP_temperature;BMP_pressure;BME280_temperature;BME280_humidity;BME280_pressure;Samples;Min_cycle;Max_cycle;Signal;HPM_P1;HPM_P2
2022/01/07 00:01:11;;;;;;;28.27;12.20;;;;;;;-3.16;75.13;98530.71;1736865;82;21402;-57
2022/01/07 00:03:38;;;;;;;25.25;11.35;;;;;;;-3.22;74.90;98528.27;1737030;82;21072;-57
2022/01/07 00:06:05;;;;;;;13.83;6.50;;;;;;;-3.22;74.56;98537.55;1736795;82;22099;-57
2022/01/07 00:08:32;;;;;;;18.95;7.10;;;;;;;-3.22;74.42;98538.05;1737097;82;21049;-57
2022/01/07 00:11:00;;;;;;;23.07;10.85;;;;;;;-3.23;74.33;98544.36;1731113;82;36815;-57
2022/01/07 00:13:27;;;;;;;19.87;8.65;;;;;;;-3.31;75.28;98548.40;1712242;82;22033;-57
2022/01/07 00:15:54;;;;;;;30.55;12.10;;;;;;;-3.39;74.76;98541.84;1712295;82;21007;-57
2022/01/07 00:18:22;;;;;;;34.25;12.33;;;;;;;-3.53;76.08;98551.38;1712425;82;21034;-57
2022/01/07 00:20:50;;;;;;;28.80;11.73;;;;;;;-3.64;76.97;98551.80;1722345;82;21025;-57
2022/01/07 00:23:17;;;;;;;34.80;15.38;;;;;;;-3.68;77.17;98551.30;1714405;82;21352;-57
2022/01/07 00:25:44;;;;;;;26.87;10.45;;;;;;;-3.77;78.59;98558.48;1721326;82;22183;-57
2022/01/07 00:28:11;;;;;;;37.93;14.35;;;;;;;-3.80;76.96;98558.84;1737003;82;21021;-56
2022/01/07 00:30:38;;;;;;;23.50;11.88;;;;;;;-3.87;76.22;98553.91;1730779;82;20999;-57
2022/01/07 00:33:05;;;;;;;25.32;10.90;;;;;;;-3.93;75.79;98559.08;1737043;82;20988;-57
2022/01/07 00:35:32;;;;;;;26.33;10.98;;;;;;;-4.01;76.92;98562.12;1736965;82;20981;-57
2022/01/07 00:37:59;;;;;;;25.12;12.50;;;;;;;-4.01;77.08;98558.14;1737158;82;21316;-57
2022/01/07 00:40:26;;;;;;;25.68;12.55;;;;;;;-4.03;78.52;98563.27;1731098;82;21038;-57
2022/01/07 00:42:53;;;;;;;25.00;10.98;;;;;;;-4.07;78.53;98567.27;1731313;82;21441;-57
2022/01/07 00:45:21;;;;;;;23.73;10.18;;;;;;;-4.18;78.82;98570.31;1731995;82;21424;-57
2022/01/07 00:47:49;;;;;;;19.12;10.13;;;;;;;-4.17;77.64;98574.61;1727792;80;21250;-57
2022/01/07 00:50:17;;;;;;;22.25;10.28;;;;;;;-4.28;78.44;98579.25;1761986;80;22103;-57
2022/01/07 00:52:44;;;;;;;15.85;7.15;;;;;;;-4.32;78.47;98582.44;1735547;82;21004;-57
2022/01/07 00:55:11;;;;;;;19.42;7.95;;;;;;;-4.40;77.14;98586.43;1733414;82;22027;-57
2022/01/07 00:57:38;;;;;;;18.02;7.58;;;;;;;-4.52;79.25;98588.63;1712506;82;21007;-57
2022/01/07 01:00:09;;;;;;;17.67;7.83;;;;;;;-4.58;80.35;98595.91;1712511;82;21014;-57
2022/01/07 01:02:36;;;;;;;31.17;9.78;;;;;;;-4.66;81.49;98592.78;1734510;82;20977;-57
2022/01/07 01:05:05;;;;;;;28.85;9.13;;;;;;;-4.69;81.55;98590.48;1736880;82;21267;-57
2022/01/07 01:07:31;;;;;;;;;;;;;;;-4.72;80.94;98589.98;1733636;82;21512;-57
2022/01/07 01:09:58;;;;;;;33.05;10.35;;;;;;;-4.79;79.79;98589.00;1736044;82;20290;-57
2022/01/07 01:12:25;;;;;;;21.45;8.30;;;;;;;-4.86;81.63;98592.84;1732060;82;21225;-57
2022/01/07 01:14:52;;;;;;;30.95;11.05;;;;;;;-4.88;81.33;98589.01;1737043;82;22040;-56
2022/01/07 01:17:19;;;;;;;27.37;10.30;;;;;;;-4.89;81.25;98592.65;1737109;82;21421;-57
2022/01/07 01:19:46;;;;;;;31.42;10.35;;;;;;;-4.91;80.71;98596.46;1737098;82;21085;-57
2022/01/07 01:22:13;;;;;;;33.60;12.13;;;;;;;-4.98;79.09;98591.02;1719358;82;20990;-57
2022/01/07 01:24:40;;;;;;;45.28;15.05;;;;;;;-5.05;78.87;98591.84;1712639;83;21030;-57
2022/01/07 01:27:07;;;;;;;44.13;14.28;;;;;;;-5.13;80.90;98596.63;1718882;82;21916;-56
2022/01/07 01:29:33;;;;;;;39.95;14.18;;;;;;;-5.21;83.35;98582.95;1712286;83;20998;-56
2022/01/07 01:32:01;;;;;;;36.17;12.33;;;;;;;-5.24;83.66;98582.44;1722706;82;21013;-56
2022/01/07 01:34:28;;;;;;;48.52;16.37;;;;;;;-5.21;81.46;98588.73;1736886;82;21079;-57
2022/01/07 01:36:55;;;;;;;47.85;14.73;;;;;;;-5.25;82.10;98587.40;1730997;82;21079;-57
2022/01/07 01:39:22;;;;;;;30.62;12.47;;;;;;;-5.27;81.54;98588.06;1736933;82;22070;-57
2022/01/07 01:41:49;;;;;;;27.15;10.50;;;;;;;-5.33;79.96;98585.58;1737038;82;21387;-57
2022/01/07 01:44:16;;;;;;;36.42;12.65;;;;;;;-5.37;80.02;98592.20;1736763;82;21484;-57
2022/01/07 01:46:43;;;;;;;38.28;13.70;;;;;;;-5.39;81.93;98587.55;1736504;82;21004;-57
2022/01/07 01:49:10;;;;;;;45.67;19.05;;;;;;;-5.46;83.39;98587.90;1714011;82;20986;-57
2022/01/07 01:51:37;;;;;;;50.85;18.42;;;;;;;-5.57;83.31;98592.98;1705991;82;20990;-57
2022/01/07 01:54:04;;;;;;;39.88;15.43;;;;;;;-5.64;84.01;98580.59;1712431;83;21054;-56
2022/01/07 01:56:32;;;;;;;45.55;14.58;;;;;;;-5.63;82.71;98579.62;1723229;82;21028;-57
2022/01/07 01:58:59;;;;;;;48.48;15.10;;;;;;;-5.73;80.88;98580.58;1737107;82;21430;-57
2022/01/07 02:01:26;;;;;;;30.70;10.72;;;;;;;-5.81;82.19;98578.42;1731185;82;21064;-57
2022/01/07 02:03:52;;;;;;;23.12;11.22;;;;;;;-5.81;83.21;98573.14;1737159;82;21369;-57
2022/01/07 02:06:19;;;;;;;27.73;11.00;;;;;;;-5.86;82.02;98574.96;1737087;82;21051;-57
2022/01/07 02:08:46;;;;;;;24.77;10.58;;;;;;;-5.90;81.81;98564.91;1737364;82;21172;-57
2022/01/07 02:11:13;;;;;;;27.95;10.98;;;;;;;-5.97;80.75;98569.53;1737237;82;20985;-57
2022/01/07 02:13:40;;;;;;;35.65;15.68;;;;;;;-6.01;82.86;98568.68;1737241;82;22084;-57
2022/01/07 02:16:07;;;;;;;36.55;13.32;;;;;;;-6.07;80.79;98574.09;1730993;82;21432;-57
2022/01/07 02:18:34;;;;;;;30.02;12.70;;;;;;;-6.17;81.64;98572.09;1737002;82;21013;-57
2022/01/07 02:21:02;;;;;;;40.38;15.00;;;;;;;-6.18;83.92;98573.58;1725139;82;21034;-57
2022/01/07 02:23:29;;;;;;;27.27;11.25;;;;;;;-6.17;84.32;98573.41;1712760;83;21055;-57
2022/01/07 02:25:56;;;;;;;28.17;11.53;;;;;;;-6.15;82.54;98571.93;1712535;82;21010;-57
2022/01/07 02:28:23;;;;;;;30.48;13.28;;;;;;;-6.25;82.74;98570.25;1690957;83;21052;-56
2022/01/07 02:30:50;;;;;;;32.75;13.78;;;;;;;-6.25;82.29;98574.70;1710986;82;21003;-56
2022/01/07 02:33:17;;;;;;;32.88;13.70;;;;;;;-6.33;84.35;98574.67;1712834;82;21436;-56
2022/01/07 02:35:45;;;;;;;29.07;11.35;;;;;;;-6.35;85.30;98575.33;1715361;82;21011;-56
2022/01/07 02:38:15;;;;;;;37.33;15.00;;;;;;;-6.38;84.29;98575.16;1737650;82;21060;-57
2022/01/07 02:40:42;;;;;;;26.68;12.75;;;;;;;-6.43;85.00;98576.61;1737105;82;21320;-57
2022/01/07 02:43:09;;;;;;;23.83;11.28;;;;;;;-6.43;84.26;98577.94;1715663;82;20996;-56
2022/01/07 02:45:36;;;;;;;35.33;12.33;;;;;;;-6.43;83.74;98576.12;1712602;82;21011;-57
2022/01/07 02:48:04;;;;;;;20.60;10.32;;;;;;;-6.48;82.55;98577.10;1734238;80;20970;-56
2022/01/07 02:50:37;;;;;;;21.70;11.68;;;;;;;-6.49;82.05;98573.28;1733593;80;21486;-56
2022/01/07 02:53:07;;;;;;;31.80;14.98;;;;;;;-6.54;82.87;98571.14;1733415;82;21582;-58
2022/01/07 02:55:34;;;;;;;23.75;13.08;;;;;;;-6.60;84.60;98565.98;1736938;82;20992;-58
2022/01/07 02:58:01;;;;;;;23.00;10.58;;;;;;;-6.59;84.71;98570.27;1717105;82;21098;-58
2022/01/07 03:00:28;;;;;;;23.18;10.58;;;;;;;-6.61;85.78;98561.70;1718665;82;21012;-58
2022/01/07 03:02:56;;;;;;;25.80;12.35;;;;;;;-6.51;85.41;98572.62;1737278;82;21005;-57
2022/01/07 03:05:23;;;;;;;20.12;10.72;;;;;;;-6.46;84.33;98567.71;1731850;82;22005;-57
2022/01/07 03:07:50;;;;;;;104.45;33.28;;;;;;;-6.45;84.12;98567.55;1718480;82;21459;-57
2022/01/07 03:10:20;;;;;;;51.08;19.30;;;;;;;-6.41;84.26;98569.36;1716832;82;21071;-57
2022/01/07 03:12:47;;;;;;;29.05;14.63;;;;;;;-6.33;84.04;98565.44;1719278;82;21261;-57
2022/01/07 03:15:14;;;;;;;23.47;13.10;;;;;;;-6.42;83.88;98572.50;1712473;82;21487;-57
2022/01/07 03:17:41;;;;;;;25.45;12.60;;;;;;;-6.50;83.49;98569.00;1735355;82;21522;-57
2022/01/07 03:20:11;;;;;;;23.00;10.05;;;;;;;-6.57;83.97;98567.51;1734097;82;21040;-57
2022/01/07 03:22:39;;;;;;;27.00;10.95;;;;;;;-6.58;84.57;98565.83;1718732;82;21006;-57
2022/01/07 03:25:08;;;;;;;26.07;10.90;;;;;;;-6.55;84.85;98572.95;1713259;80;21405;-57
2022/01/07 03:27:34;;;;;;;25.40;11.15;;;;;;;-6.52;84.77;98570.48;1727812;82;21453;-58
2022/01/07 03:30:04;;;;;;;26.42;12.47;;;;;;;-6.56;84.49;98578.38;1735223;82;21382;-57
2022/01/07 03:32:31;;;;;;;38.33;14.87;;;;;;;-6.69;85.27;98575.34;1712697;82;21423;-57
2022/01/07 03:34:57;;;;;;;27.17;13.25;;;;;;;-6.84;84.79;98575.91;1713528;82;21537;-57
2022/01/07 03:37:24;;;;;;;22.87;12.95;;;;;;;-6.81;84.47;98577.42;1737209;82;21075;-57
2022/01/07 03:39:51;;;;;;;27.75;12.58;;;;;;;-6.80;83.57;98572.98;1736986;82;20993;-57
2022/01/07 03:42:18;;;;;;;24.02;10.95;;;;;;;-6.84;83.21;98571.95;1737319;82;21394;-57
2022/01/07 03:44:45;;;;;;;30.23;14.03;;;;;;;-6.89;84.75;98577.38;1737103;82;21057;-57
2022/01/07 03:47:12;;;;;;;21.95;9.88;;;;;;;-6.85;84.85;98574.75;1731301;82;21275;-58
2022/01/07 03:49:39;;;;;;;26.50;11.03;;;;;;;-6.83;84.52;98574.95;1707874;83;21425;-57
2022/01/07 03:52:06;;;;;;;21.35;10.82;;;;;;;-6.88;83.60;98575.89;1710491;82;21023;-58
2022/01/07 03:54:33;;;;;;;29.18;12.40;;;;;;;-6.95;84.54;98569.59;1712504;83;21536;-58
2022/01/07 03:57:00;;;;;;;25.25;12.07;;;;;;;-6.96;84.99;98569.75;1712307;82;21466;-57
2022/01/07 03:59:27;;;;;;;20.12;10.50;;;;;;;-7.01;84.63;98570.20;1712509;83;20994;-58
2022/01/07 04:01:54;;;;;;;22.05;11.90;;;;;;;-6.99;84.25;98572.70;1727412;82;21068;-57
2022/01/07 04:04:21;;;;;;;21.62;9.65;;;;;;;-7.05;85.75;98568.05;1737165;82;21095;-58
2022/01/07 04:06:48;;;;;;;21.52;8.85;;;;;;;-7.03;84.16;98571.34;1730679;82;21103;-57
2022/01/07 04:09:15;;;;;;;23.95;9.60;;;;;;;-7.05;84.78;98567.55;1737074;82;20996;-57
2022/01/07 04:11:42;;;;;;;17.05;9.65;;;;;;;-7.02;84.82;98577.77;1731170;82;21024;-57
2022/01/07 04:14:09;;;;;;;22.50;9.70;;;;;;;-7.00;84.76;98573.20;1736908;82;21020;-57
2022/01/07 04:16:36;;;;;;;26.68;11.08;;;;;;;-7.07;83.87;98580.06;1719187;82;21407;-57
2022/01/07 04:19:03;;;;;;;26.77;10.40;;;;;;;-7.13;84.18;98580.67;1712616;83;21455;-57
2022/01/07 04:21:30;;;;;;;21.55;9.20;;;;;;;-7.20;83.72;98577.81;1728925;82;21088;-57
2022/01/07 04:23:56;;;;;;;21.68;9.83;;;;;;;-7.30;83.65;98578.41;1737128;82;20996;-57
2022/01/07 04:26:23;;;;;;;21.70;11.28;;;;;;;-7.40;84.36;98578.49;1714126;82;21042;-57
2022/01/07 04:28:50;;;;;;;25.60;12.15;;;;;;;-7.34;84.73;98576.24;1712539;83;21058;-56
2022/01/07 04:31:17;;;;;;;23.05;11.05;;;;;;;-7.36;85.43;98578.18;1724486;82;21013;-57
2022/01/07 04:33:44;;;;;;;25.60;10.28;;;;;;;-7.33;84.81;98577.41;1712526;83;21525;-57
2022/01/07 04:36:11;;;;;;;27.22;12.15;;;;;;;-7.44;85.09;98581.08;1725841;82;21468;-56
2022/01/07 04:38:38;;;;;;;27.60;14.73;;;;;;;-7.41;84.42;98583.43;1737152;82;21076;-57
2022/01/07 04:41:04;;;;;;;38.10;17.15;;;;;;;-7.42;84.43;98584.90;1730484;82;21027;-58
2022/01/07 04:43:31;;;;;;;29.30;14.80;;;;;;;-7.49;84.41;98582.53;1712545;82;21320;-57
2022/01/07 04:45:58;;;;;;;36.38;17.77;;;;;;;-7.47;83.92;98580.56;1717945;82;20988;-57
2022/01/07 04:48:25;;;;;;;50.08;18.12;;;;;;;-7.52;83.85;98584.13;1722367;82;21484;-57
2022/01/07 04:50:52;;;;;;;41.88;17.02;;;;;;;-7.61;83.64;98590.30;1709022;82;21513;-57
2022/01/07 04:53:20;;;;;;;49.30;23.00;;;;;;;-7.66;83.46;98593.41;1736018;82;21017;-57
2022/01/07 04:55:47;;;;;;;44.60;19.55;;;;;;;-7.71;83.77;98596.47;1727656;82;21082;-57
2022/01/07 04:58:14;;;;;;;44.67;17.52;;;;;;;-7.72;83.81;98593.50;1712328;82;20976;-57
2022/01/07 05:00:42;;;;;;;33.83;15.72;;;;;;;-7.78;83.62;98593.27;1714690;82;21023;-57
2022/01/07 05:03:09;;;;;;;29.48;15.32;;;;;;;-7.79;84.89;98595.08;1719328;82;20973;-57
2022/01/07 05:05:36;;;;;;;63.48;30.02;;;;;;;-7.79;84.25;98585.05;1705320;82;20988;-57
2022/01/07 05:08:04;;;;;;;54.27;26.15;;;;;;;-7.88;84.71;98588.08;1737233;82;21731;-57
2022/01/07 05:10:31;;;;;;;84.92;36.17;;;;;;;-7.85;84.65;98599.64;1736189;82;21072;-57
2022/01/07 05:12:58;;;;;;;52.23;24.00;;;;;;;-7.90;85.28;98593.16;1712665;82;21050;-57
2022/01/07 05:15:24;;;;;;;58.28;30.65;;;;;;;-7.87;84.49;98596.31;1712373;82;20991;-57
2022/01/07 05:17:52;;;;;;;57.67;23.52;;;;;;;-7.88;84.42;98597.78;1731127;82;20981;-57
2022/01/07 05:20:19;;;;;;;54.77;26.00;;;;;;;-7.86;84.49;98590.55;1736951;82;21357;-57
2022/01/07 05:22:46;;;;;;;56.05;28.75;;;;;;;-7.90;83.71;98596.62;1731173;82;22254;-57
2022/01/07 05:25:13;;;;;;;62.25;29.80;;;;;;;-7.99;84.03;98587.81;1733502;82;21412;-57
2022/01/07 05:27:40;;;;;;;58.28;28.35;;;;;;;-8.01;84.27;98590.27;1718472;82;21014;-57
2022/01/07 05:30:09;;;;;;;47.33;22.37;;;;;;;-8.01;84.70;98591.09;1712513;82;20999;-57
2022/01/07 05:32:36;;;;;;;65.55;27.98;;;;;;;-8.01;83.57;98595.52;1712945;82;22009;-56
2022/01/07 05:35:04;;;;;;;83.20;30.48;;;;;;;-8.02;83.72;98597.81;1712569;82;21455;-57
2022/01/07 05:37:31;;;;;;;67.85;28.87;;;;;;;-8.02;83.62;98594.70;1727747;82;21460;-57
2022/01/07 05:39:58;;;;;;;39.88;17.73;;;;;;;-8.07;85.79;98592.98;1736058;82;21516;-57
2022/01/07 05:42:25;;;;;;;48.98;21.45;;;;;;;-8.00;86.00;98590.59;1712803;82;21483;-57
2022/01/07 05:44:55;;;;;;;52.00;23.52;;;;;;;-7.95;84.72;98590.96;1719078;82;22035;-56
2022/01/07 05:47:21;;;;;;;59.93;26.17;;;;;;;-8.00;85.10;98589.28;1722591;82;21001;-57
2022/01/07 05:49:48;;;;;;;41.25;20.30;;;;;;;-8.02;85.04;98598.64;1707950;83;21266;-57
2022/01/07 05:52:15;;;;;;;47.90;22.48;;;;;;;-8.02;84.48;98599.13;1705700;82;21468;-57
2022/01/07 05:54:42;;;;;;;64.15;26.80;;;;;;;-8.12;83.83;98608.86;1713121;82;21016;-57
2022/01/07 05:57:09;;;;;;;47.27;24.77;;;;;;;-8.24;84.83;98595.92;1706810;82;21017;-57
2022/01/07 05:59:36;;;;;;;56.28;26.87;;;;;;;-8.25;85.10;98605.27;1712662;83;20998;-57
2022/01/07 06:02:04;;;;;;;92.10;34.15;;;;;;;-8.21;85.91;98599.22;1710202;82;21016;-57
2022/01/07 06:04:31;;;;;;;108.32;45.80;;;;;;;-8.17;85.35;98599.28;1708684;82;22123;-58
2022/01/07 06:06:57;;;;;;;69.70;29.27;;;;;;;-8.22;85.19;98604.14;1729884;82;21008;-58
2022/01/07 06:09:24;;;;;;;64.62;26.57;;;;;;;-8.28;85.52;98595.06;1737136;82;21401;-57
2022/01/07 06:11:51;;;;;;;67.92;28.62;;;;;;;-8.35;85.80;98594.02;1723147;82;21007;-57
2022/01/07 06:14:18;;;;;;;142.53;51.83;;;;;;;-8.28;85.48;98600.32;1712789;83;21023;-57
2022/01/07 06:16:45;;;;;;;81.47;29.65;;;;;;;-8.25;85.06;98598.70;1725759;82;20988;-57
2022/01/07 06:19:12;;;;;;;125.78;50.17;;;;;;;-8.24;85.09;98593.78;1722129;82;20996;-57
2022/01/07 06:21:39;;;;;;;74.07;28.75;;;;;;;-8.31;85.38;98581.70;1705974;82;21418;-57
2022/01/07 06:24:06;;;;;;;112.00;42.38;;;;;;;-8.28;84.62;98578.80;1712750;83;20987;-57
2022/01/07 06:26:33;;;;;;;149.42;56.02;;;;;;;-8.32;85.03;98574.79;1717695;82;21445;-56
2022/01/07 06:29:00;;;;;;;300.40;105.15;;;;;;;-8.35;84.56;98567.23;1737191;82;21021;-57
2022/01/07 06:31:27;;;;;;;268.10;85.53;;;;;;;-8.37;84.25;98573.63;1736965;82;21020;-57
2022/01/07 06:33:54;;;;;;;224.20;73.22;;;;;;;-8.36;85.47;98563.45;1737255;82;21106;-56
2022/01/07 06:36:21;;;;;;;241.38;79.65;;;;;;;-8.31;85.73;98565.92;1736881;82;20977;-56
2022/01/07 06:38:48;;;;;;;113.50;42.38;;;;;;;-8.29;85.07;98560.51;1737340;82;21322;-57
2022/01/07 06:41:14;;;;;;;137.92;52.45;;;;;;;-8.20;85.20;98562.28;1712906;82;21421;-56
2022/01/07 06:43:43;;;;;;;116.88;44.30;;;;;;;-8.12;85.17;98559.71;1712661;83;20987;-57
2022/01/07 06:46:11;;;;;;;79.10;35.45;;;;;;;-8.08;85.21;98562.41;1718379;81;21389;-57
2022/01/07 06:48:38;;;;;;;204.60;73.90;;;;;;;-8.11;83.88;98564.02;1746850;80;21047;-57
2022/01/07 06:51:05;;;;;;;104.50;41.55;;;;;;;-8.16;83.39;98564.12;1748009;80;21133;-57
2022/01/07 06:53:32;;;;;;;114.95;43.28;;;;;;;-8.26;83.50;98566.32;1720650;82;21477;-57
2022/01/07 06:55:59;;;;;;;95.05;38.58;;;;;;;-8.31;83.58;98568.55;1709661;82;20956;-57
2022/01/07 06:58:26;;;;;;;81.82;34.83;;;;;;;-8.32;83.92;98566.08;1737191;82;21508;-57
2022/01/07 07:00:53;;;;;;;524.60;194.85;;;;;;;-8.41;82.91;98566.98;1717950;82;21017;-56
2022/01/07 07:03:20;;;;;;;209.98;77.17;;;;;;;-8.42;82.65;98567.97;1718465;82;21036;-57
2022/01/07 07:05:48;;;;;;;350.98;116.12;;;;;;;-8.47;83.01;98559.68;1706366;82;21547;-57
2022/01/07 07:08:15;;;;;;;377.90;130.47;;;;;;;-8.48;83.05;98572.00;1718371;81;22145;-56
2022/01/07 07:10:41;;;;;;;225.53;81.37;;;;;;;-8.56;82.88;98566.64;1720426;82;21457;-57
2022/01/07 07:13:08;;;;;;;271.27;105.40;;;;;;;-8.67;82.93;98557.64;1724193;82;20989;-57
2022/01/07 07:15:35;;;;;;;445.73;158.57;;;;;;;-8.72;83.14;98559.86;1735617;82;21016;-57
2022/01/07 07:18:02;;;;;;;260.63;98.55;;;;;;;-8.70;83.32;98557.45;1712440;82;20959;-57
2022/01/07 07:20:29;;;;;;;62.65;30.97;;;;;;;-8.71;84.03;98558.91;1715977;82;21055;-57
2022/01/07 07:22:56;;;;;;;66.22;21.85;;;;;;;-8.53;83.76;98557.17;1709808;82;22089;-56
2022/01/07 07:25:23;;;;;;;20.97;13.40;;;;;;;-8.22;84.12;98556.81;1705902;82;21012;-57
2022/01/07 07:27:51;;;;;;;35.58;18.20;;;;;;;-7.97;84.15;98554.78;1709332;82;21075;-57
2022/01/07 07:30:18;;;;;;;128.30;54.90;;;;;;;-7.79;83.99;98563.98;1713952;82;21048;-57
2022/01/07 07:32:45;;;;;;;189.80;88.67;;;;;;;-7.69;84.06;98558.16;1714855;82;21060;-57
2022/01/07 07:37:42;;;;;;;244.13;116.00;;;;;;;-7.65;82.88;98579.75;1730182;82;20957;-56
2022/01/07 07:40:10;;;;;;;154.47;79.75;;;;;;;-7.81;82.30;98572.04;1736823;82;21001;-57
2022/01/07 07:42:38;;;;;;;128.95;68.00;;;;;;;-7.88;82.20;98567.52;1721220;82;21019;-57
2022/01/07 07:45:06;;;;;;;249.80;131.00;;;;;;;-7.95;82.33;98577.81;1719180;82;21028;-56
2022/01/07 07:47:34;;;;;;;133.70;68.50;;;;;;;-8.04;82.90;98569.00;1718018;82;21623;-57
2022/01/07 07:50:02;;;;;;;77.40;38.23;;;;;;;-7.99;83.67;98562.00;1706789;82;21094;-57
2022/01/07 07:52:29;;;;;;;87.35;46.35;;;;;;;-7.99;83.27;98565.45;1711371;82;21004;-57
2022/01/07 07:54:56;;;;;;;70.62;35.92;;;;;;;-7.92;83.32;98569.64;1651221;85;21012;-56
2022/01/07 07:57:23;;;;;;;71.92;36.00;;;;;;;-7.85;83.78;98569.88;1715125;82;21028;-57
2022/01/07 07:59:50;;;;;;;175.75;57.17;;;;;;;-7.73;83.92;98567.34;1718880;82;21315;-57
2022/01/07 08:02:17;;;;;;;189.97;66.00;;;;;;;-7.61;83.62;98567.44;1717905;82;21040;-57
2022/01/07 08:04:44;;;;;;;159.20;50.90;;;;;;;-7.48;84.02;98565.75;1713891;82;21757;-57
2022/01/07 08:07:16;;;;;;;172.00;51.58;;;;;;;-7.37;83.47;98563.36;1721903;82;21478;-57
2022/01/07 08:09:40;;;;;;;;;;;;;;;-7.35;82.97;98563.53;1737358;82;20990;-57
2022/01/07 08:12:19;;;;;;;130.40;47.05;;;;;;;-7.34;82.85;98557.32;1712711;82;21866;-57
2022/01/07 08:17:29;;;;;;;529.12;194.20;;;;;;;-7.29;83.02;98564.74;1713345;82;21567;-56
2022/01/07 08:19:56;;;;;;;590.08;258.68;;;;;;;-7.21;83.24;98559.05;1718523;82;21000;-57
2022/01/07 08:22:23;;;;;;;163.70;63.52;;;;;;;-7.20;83.64;98546.20;1711420;82;21024;-56
2022/01/07 08:24:50;;;;;;;427.60;177.82;;;;;;;-7.08;83.05;98553.87;1713892;82;21361;-57
2022/01/07 08:27:21;;;;;;;309.98;123.62;;;;;;;-7.02;83.36;98561.97;1721522;82;20957;-57
2022/01/07 08:29:49;;;;;;;327.68;149.12;;;;;;;-6.95;83.55;98553.78;1719193;82;21059;-57
2022/01/07 08:35:03;;;;;;;112.55;46.68;;;;;;;-6.68;83.54;98556.72;1723928;82;21020;-57
2022/01/07 08:37:29;;;;;;;36.03;17.52;;;;;;;-6.53;83.24;98556.96;1712753;82;21350;-56
2022/01/07 08:39:56;;;;;;;49.83;23.75;;;;;;;-6.27;82.04;98551.63;1691662;82;21147;-56
2022/01/07 08:42:24;;;;;;;73.57;36.75;;;;;;;-6.03;81.36;98554.83;1718409;82;21080;-57
2022/01/07 08:44:55;;;;;;;79.32;36.95;;;;;;;-5.84;80.98;98555.82;1731678;80;21075;-57
2022/01/07 08:47:21;;;;;;;82.50;33.73;;;;;;;-5.69;80.04;98558.16;1713292;82;21440;-57
2022/01/07 08:49:48;;;;;;;95.62;36.73;;;;;;;-5.53;79.32;98552.56;1718648;80;22093;-56
2022/01/07 08:52:15;;;;;;;61.13;28.62;;;;;;;-5.40;78.84;98556.34;1712690;82;21460;-57
2022/01/07 08:54:42;;;;;;;56.73;24.23;;;;;;;-5.27;78.08;98551.08;1720645;82;21481;-57
2022/01/07 08:57:09;;;;;;;76.45;34.63;;;;;;;-5.17;77.71;98551.72;1720401;82;21022;-57
2022/01/07 08:59:36;;;;;;;63.85;26.85;;;;;;;-5.04;76.90;98553.84;1731895;82;21064;-57
2022/01/07 09:02:04;;;;;;;176.22;57.60;;;;;;;-4.92;76.39;98562.59;1706711;82;21286;-57
2022/01/07 09:04:31;;;;;;;52.98;22.67;;;;;;;-4.80;76.97;98563.55;1708724;82;21064;-57
2022/01/07 09:06:58;;;;;;;77.65;34.10;;;;;;;-4.67;76.14;98548.82;1717197;82;21464;-57
2022/01/07 09:09:25;;;;;;;90.32;41.20;;;;;;;-4.59;76.59;98546.66;1719088;82;21015;-57
2022/01/07 09:11:52;;;;;;;77.75;36.58;;;;;;;-4.56;76.79;98542.33;1673787;84;21063;-56
2022/01/07 09:14:18;;;;;;;56.68;29.40;;;;;;;-4.56;76.72;98539.69;1719968;82;21250;-57
2022/01/07 09:16:45;;;;;;;64.75;27.98;;;;;;;-4.51;77.07;98539.19;1721411;82;21028;-57
2022/01/07 09:19:12;;;;;;;61.80;29.70;;;;;;;-4.49;77.01;98526.61;1715579;82;21544;-56
2022/01/07 09:21:39;;;;;;;80.87;33.83;;;;;;;-4.46;76.63;98532.37;1716451;82;20965;-57
2022/01/07 09:24:07;;;;;;;111.88;52.40;;;;;;;-4.38;76.80;98525.72;1685987;84;21072;-57
2022/01/07 09:26:34;;;;;;;109.45;46.70;;;;;;;-4.29;76.96;98521.21;1714552;82;21392;-57
2022/01/07 09:29:01;;;;;;;96.63;38.80;;;;;;;-4.19;77.57;98516.52;1719998;82;21039;-57
2022/01/07 09:31:28;;;;;;;99.65;43.13;;;;;;;-4.09;77.56;98505.74;1707109;82;21068;-57
2022/01/07 09:33:55;;;;;;;81.45;35.50;;;;;;;-4.05;75.08;98500.41;1715289;82;21029;-57
2022/01/07 09:36:22;;;;;;;49.48;21.27;;;;;;;-3.94;77.12;98498.67;1713511;82;21050;-57
2022/01/07 09:38:49;;;;;;;71.28;30.30;;;;;;;-3.84;77.27;98492.67;1725826;82;21982;-57
2022/01/07 09:41:15;;;;;;;75.67;35.15;;;;;;;-3.74;77.11;98489.28;1729439;82;21557;-57
2022/01/07 09:43:44;;;;;;;47.65;26.17;;;;;;;-3.60;76.97;98484.20;1719505;82;21008;-56
2022/01/07 09:46:15;;;;;;;151.55;53.10;;;;;;;-3.45;76.92;98479.77;1722076;82;21482;-56
2022/01/07 09:48:42;;;;;;;204.40;76.28;;;;;;;-3.24;76.61;98485.72;1715037;82;21430;-56
2022/01/07 09:51:09;;;;;;;60.08;27.00;;;;;;;-3.06;76.09;98478.75;1683304;84;21785;-56
2022/01/07 09:53:36;;;;;;;50.38;24.37;;;;;;;-2.90;75.85;98470.63;1714832;82;21422;-56
2022/01/07 09:56:04;;;;;;;54.45;23.22;;;;;;;-2.73;75.27;98476.56;1727968;82;22049;-56
2022/01/07 09:58:33;;;;;;;91.50;34.17;;;;;;;-2.56;74.63;98474.86;1710854;82;21024;-56
2022/01/07 10:01:02;;;;;;;67.15;29.12;;;;;;;-2.38;74.29;98481.09;1692479;84;21293;-56
2022/01/07 10:03:37;;;;;;;53.75;24.77;;;;;;;-2.22;73.56;98486.70;1735256;82;21595;-56
2022/01/07 10:06:20;;;;;;;53.10;20.35;;;;;;;-2.07;72.28;98484.80;1728041;82;21019;-56
2022/01/07 10:09:14;;;;;;;54.30;25.80;;;;;;;-1.91;71.79;98480.28;1708157;82;21036;-55
2022/01/07 10:11:35;;;;;;;50.03;20.77;;;;;;;-1.79;71.79;98477.45;1712201;82;21995;-55
2022/01/07 10:14:21;;;;;;;48.08;21.23;;;;;;;-1.72;70.67;98476.47;1722071;82;20996;-56
2022/01/07 10:16:52;;;;;;;48.48;23.27;;;;;;;-1.66;71.02;98484.71;1717549;82;21001;-56
2022/01/07 10:19:40;;;;;;;60.17;23.12;;;;;;;-1.64;71.30;98479.52;1728621;82;21013;-56
2022/01/07 10:22:14;;;;;;;164.07;52.88;;;;;;;-1.59;71.33;98477.63;1710839;82;21035;-56
2022/01/07 10:25:02;;;;;;;469.62;169.68;;;;;;;-1.53;71.14;98469.72;1718243;82;21079;-56
2022/01/07 10:27:37;;;;;;;89.65;34.45;;;;;;;-1.42;69.96;98461.22;1718622;82;20996;-56
2022/01/07 10:30:16;;;;;;;82.12;36.08;;;;;;;-1.30;67.93;98469.48;1720570;82;21030;-55
2022/01/07 10:32:43;;;;;;;127.20;48.75;;;;;;;-1.19;69.70;98471.63;1730547;82;21059;-56
2022/01/07 10:35:19;;;;;;;53.55;22.42;;;;;;;-1.13;69.91;98472.67;1675759;84;21009;-56
2022/01/07 10:37:53;;;;;;;44.85;21.57;;;;;;;-1.07;67.76;98466.59;1664373;85;21049;-56
2022/01/07 10:40:36;;;;;;;32.93;16.70;;;;;;;-1.05;68.50;98461.88;1725737;82;21044;-55
2022/01/07 10:43:21;;;;;;;36.30;19.27;;;;;;;-1.06;64.23;98462.91;1719774;82;21020;-55
2022/01/07 10:45:55;;;;;;;29.92;14.23;;;;;;;-1.06;67.24;98452.78;1723229;82;21469;-56
2022/01/07 10:48:25;;;;;;;43.25;22.73;;;;;;;-1.04;66.87;98450.22;1713875;82;21005;-56
2022/01/07 10:50:52;;;;;;;31.33;14.73;;;;;;;-1.02;66.46;98446.06;1712254;82;21013;-55
2022/01/07 10:53:24;;;;;;;54.67;43.30;;;;;;;-0.98;66.45;98442.80;1714987;82;21087;-56
2022/01/07 10:56:06;;;;;;;41.58;31.50;;;;;;;-0.95;66.45;98445.06;1714587;82;22059;-55
2022/01/07 10:58:52;;;;;;;33.78;16.85;;;;;;;-0.90;67.36;98443.16;1719910;82;21519;-56
2022/01/07 11:01:31;;;;;;;58.92;24.32;;;;;;;-0.84;67.76;98443.72;1722382;82;21016;-56
2022/01/07 11:04:00;;;;;;;26.80;12.90;;;;;;;-0.75;67.65;98442.53;1722760;82;21453;-55
2022/01/07 11:06:27;;;;;;;44.65;19.30;;;;;;;-0.60;64.89;98450.36;1720367;82;20977;-56
2022/01/07 11:08:55;;;;;;;32.73;15.13;;;;;;;-0.55;63.27;98442.62;1719661;82;21297;-56
2022/01/07 11:11:24;;;;;;;28.95;13.30;;;;;;;-0.50;64.65;98436.20;1714373;80;21034;-55
2022/01/07 11:13:51;;;;;;;26.30;14.07;;;;;;;-0.47;64.79;98426.47;1723286;82;21056;-56
2022/01/07 11:16:18;;;;;;;23.07;11.18;;;;;;;-0.46;59.64;98425.95;1719790;82;21477;-56
2022/01/07 11:18:46;;;;;;;31.48;17.73;;;;;;;-0.42;61.93;98425.89;1716901;82;21059;-56
2022/01/07 11:21:16;;;;;;;34.80;18.07;;;;;;;-0.41;61.34;98404.89;1723905;82;22108;-56
2022/01/07 11:23:43;;;;;;;29.45;15.35;;;;;;;-0.39;60.01;98404.17;1706064;82;20952;-56
2022/01/07 11:26:11;;;;;;;21.10;9.58;;;;;;;-0.38;60.18;98393.31;1716006;82;20965;-56
2022/01/07 11:28:56;;;;;;;19.00;9.70;;;;;;;-0.35;62.39;98395.57;1729446;82;21005;-56